createdAt,value
2018-04-01T00:02:06.937Z,4.90
2018-04-01T00:07:34.388Z,5.00
2018-04-01T00:10:01.857Z,5.00
2018-04-01T00:12:29.327Z,4.90
2018-04-01T00:14:59.519Z,4.70
2018-04-01T00:17:27.793Z,4.60
2018-04-01T00:19:55.275Z,4.60
2018-04-01T00:22:23.518Z,4.50
2018-04-01T00:27:52.490Z,4.40
2018-04-01T00:30:29.958Z,4.50
2018-04-01T00:32:58.234Z,4.00
2018-04-01T00:35:26.471Z,4.00
2018-04-01T00:43:55.550Z,4.10
2018-04-01T00:46:23.054Z,4.00
2018-04-01T00:51:50.797Z,4.00
2018-04-01T00:54:18.275Z,3.90
2018-04-01T00:59:45.752Z,4.00
2018-04-01T01:02:13.219Z,4.00
2018-04-01T01:04:40.709Z,4.00
2018-04-01T01:07:08.221Z,4.00
2018-04-01T01:09:35.691Z,4.00
2018-04-01T01:12:03.167Z,4.00
2018-04-01T01:14:30.677Z,4.00
2018-04-01T01:16:58.174Z,4.00
2018-04-01T01:19:25.696Z,3.90
2018-04-01T01:21:53.196Z,3.80
2018-04-01T01:24:30.577Z,3.80
2018-04-01T01:26:58.077Z,4.00
2018-04-01T01:29:26.622Z,3.80
2018-04-01T01:31:54.094Z,3.80
2018-04-01T01:34:21.602Z,3.70
2018-04-01T01:36:49.068Z,3.80
2018-04-01T01:45:18.670Z,3.90
2018-04-01T01:47:46.172Z,3.90
2018-04-01T01:50:13.646Z,3.80
2018-04-01T01:52:41.206Z,3.60
2018-04-01T01:55:08.740Z,3.60
2018-04-01T01:57:36.213Z,3.60
2018-04-01T02:00:03.713Z,3.90
2018-04-01T02:02:32.692Z,3.40
2018-04-01T02:05:00.331Z,3.40
2018-04-01T02:10:28.407Z,3.40
2018-04-01T02:12:57.023Z,3.00
2018-04-01T02:15:24.488Z,3.00
2018-04-01T02:17:52.009Z,3.00
2018-04-01T02:20:19.478Z,3.10
2018-04-01T02:22:47.018Z,3.10
2018-04-01T02:25:14.581Z,3.00
2018-04-01T02:27:42.049Z,3.00
2018-04-01T02:30:09.720Z,3.00
2018-04-01T02:32:37.234Z,3.00
2018-04-01T02:38:06.117Z,2.90
2018-04-01T02:40:34.363Z,2.90
2018-04-01T02:43:01.846Z,2.90
2018-04-01T02:45:30.125Z,3.00
2018-04-01T02:47:58.368Z,3.00
2018-04-01T02:53:26.074Z,3.00
2018-04-01T02:55:54.326Z,3.00
2018-04-01T02:58:21.796Z,3.00
2018-04-01T03:00:49.310Z,3.00
2018-04-01T03:03:29.758Z,3.00
2018-04-01T03:08:57.345Z,3.00
2018-04-01T03:11:24.885Z,3.00
2018-04-01T03:13:52.358Z,3.00
2018-04-01T03:16:19.879Z,3.00
2018-04-01T03:18:48.112Z,3.00
2018-04-01T03:21:15.586Z,3.00
2018-04-01T03:23:43.222Z,3.10
2018-04-01T03:26:10.694Z,3.00
2018-04-01T03:28:38.174Z,3.00
2018-04-01T03:37:07.551Z,3.00
2018-04-01T03:39:35.031Z,2.90
2018-04-01T03:42:02.573Z,3.10
2018-04-01T03:44:30.125Z,2.90
2018-04-01T03:46:57.723Z,3.10
2018-04-01T03:52:25.786Z,2.90
2018-04-01T03:54:53.266Z,3.00
2018-04-01T03:57:20.729Z,2.90
2018-04-01T03:59:48.377Z,2.90
2018-04-01T04:02:15.850Z,2.80
2018-04-01T04:04:43.448Z,3.00
2018-04-01T04:07:11.729Z,2.90
2018-04-01T04:09:39.965Z,3.10
2018-04-01T04:12:07.431Z,3.10
2018-04-01T04:14:34.937Z,2.80
2018-04-01T04:17:02.406Z,2.80
2018-04-01T04:19:29.887Z,2.80
2018-04-01T04:21:57.407Z,2.80
2018-04-01T04:24:24.877Z,2.80
2018-04-01T04:26:52.351Z,2.70
2018-04-01T04:29:19.858Z,2.70
2018-04-01T04:31:48.136Z,2.70
2018-04-01T04:34:16.376Z,2.60
2018-04-01T04:36:44.081Z,2.60
2018-04-01T04:39:11.691Z,2.60
2018-04-01T04:44:39.276Z,2.60
2018-04-01T04:47:06.746Z,2.70
2018-04-01T04:49:34.222Z,2.70
2018-04-01T04:52:02.500Z,2.60
2018-04-01T04:54:30.753Z,2.70
2018-04-01T04:59:59.549Z,2.70
2018-04-01T05:02:27.012Z,2.70
2018-04-01T05:04:54.499Z,2.60
2018-04-01T05:07:22.260Z,2.60
2018-04-01T05:09:49.729Z,2.70
2018-04-01T05:12:17.318Z,2.70
2018-04-01T05:14:44.825Z,2.80
2018-04-01T05:17:13.070Z,2.70
2018-04-01T05:19:40.544Z,2.70
2018-04-01T05:22:08.341Z,2.70
2018-04-01T05:24:35.942Z,2.60
2018-04-01T05:30:05.365Z,2.60
2018-04-01T05:32:32.841Z,2.50
2018-04-01T05:35:00.356Z,2.40
2018-04-01T05:37:27.860Z,2.40
2018-04-01T05:39:55.406Z,2.40
2018-04-01T05:42:22.878Z,2.50
2018-04-01T05:44:50.418Z,2.50
2018-04-01T05:47:17.893Z,2.50
2018-04-01T05:49:45.371Z,2.50
2018-04-01T05:52:13.650Z,2.50
2018-04-01T05:54:41.137Z,2.40
2018-04-01T05:57:08.677Z,2.40
2018-04-01T05:59:36.934Z,2.30
2018-04-01T06:02:05.174Z,2.30
2018-04-01T06:04:33.412Z,2.30
2018-04-01T06:07:00.921Z,2.30
2018-04-01T06:12:29.353Z,2.20
2018-04-01T06:14:56.825Z,2.20
2018-04-01T06:17:24.302Z,2.30
2018-04-01T06:19:51.845Z,2.20
2018-04-01T06:22:32.483Z,2.30
2018-04-01T06:24:59.998Z,2.30
2018-04-01T06:27:27.474Z,2.20
2018-04-01T06:29:55.719Z,2.10
2018-04-01T06:32:23.429Z,2.10
2018-04-01T06:37:51.934Z,2.20
2018-04-01T06:40:19.441Z,2.40
2018-04-01T06:42:46.909Z,2.20
2018-04-01T06:45:14.385Z,2.20
2018-04-01T06:47:42.658Z,2.20
2018-04-01T06:50:30.465Z,2.20
2018-04-01T06:52:57.964Z,2.20
2018-04-01T06:55:26.198Z,2.20
2018-04-01T06:57:53.734Z,2.20
2018-04-01T07:00:21.200Z,2.20
2018-04-01T07:02:48.713Z,2.10
2018-04-01T07:05:17.002Z,2.30
2018-04-01T07:07:44.555Z,2.30
2018-04-01T07:10:12.029Z,2.20
2018-04-01T07:12:39.520Z,2.10
2018-04-01T07:15:07.034Z,2.20
2018-04-01T07:17:34.516Z,2.20
2018-04-01T07:20:02.034Z,2.30
2018-04-01T07:22:30.332Z,2.20
2018-04-01T07:24:57.809Z,2.10
2018-04-01T07:27:25.276Z,2.20
2018-04-01T07:29:52.813Z,2.30
2018-04-01T07:32:30.666Z,2.30
2018-04-01T07:34:58.300Z,2.20
2018-04-01T07:37:25.851Z,2.20
2018-04-01T07:39:53.326Z,2.20
2018-04-01T07:42:20.890Z,2.30
2018-04-01T07:44:48.355Z,2.20
2018-04-01T07:47:15.865Z,2.10
2018-04-01T07:49:43.343Z,2.20
2018-04-01T07:52:11.724Z,2.20
2018-04-01T07:54:39.442Z,2.20
2018-04-01T07:57:06.919Z,2.30
2018-04-01T08:02:34.755Z,2.20
2018-04-01T08:05:03.016Z,2.20
2018-04-01T08:07:30.521Z,2.20
2018-04-01T08:09:58.012Z,2.20
2018-04-01T08:15:26.845Z,2.20
2018-04-01T08:17:54.317Z,2.20
2018-04-01T08:20:22.590Z,2.40
2018-04-01T08:22:50.842Z,2.30
2018-04-01T08:25:18.331Z,2.30
2018-04-01T08:27:46.597Z,2.10
2018-04-01T08:30:14.833Z,2.10
2018-04-01T08:32:42.351Z,2.20
2018-04-01T08:35:09.822Z,2.20
2018-04-01T08:37:37.361Z,2.30
2018-04-01T08:40:05.670Z,2.20
2018-04-01T08:42:33.153Z,2.20
2018-04-01T08:45:00.648Z,2.30
2018-04-01T08:47:28.920Z,2.30
2018-04-01T08:50:28.440Z,2.40
2018-04-01T08:52:55.937Z,2.30
2018-04-01T09:01:25.181Z,2.30
2018-04-01T09:03:52.680Z,2.20
2018-04-01T09:06:20.989Z,2.30
2018-04-01T09:11:48.834Z,2.40
2018-04-01T09:14:30.269Z,2.30
2018-04-01T09:16:57.829Z,2.30
2018-04-01T09:19:25.294Z,2.30
2018-04-01T09:21:52.813Z,2.40
2018-04-01T09:24:30.949Z,2.40
2018-04-01T09:26:58.481Z,2.40
2018-04-01T09:29:25.953Z,2.40
2018-04-01T09:31:53.421Z,2.60
2018-04-01T09:34:20.933Z,2.50
2018-04-01T09:36:49.688Z,2.50
2018-04-01T09:39:17.855Z,2.40
2018-04-01T09:44:45.956Z,2.50
2018-04-01T09:47:13.420Z,2.40
2018-04-01T09:49:40.894Z,2.50
2018-04-01T09:52:09.229Z,2.50
2018-04-01T09:54:36.701Z,2.50
2018-04-01T09:57:04.169Z,2.50
2018-04-01T09:59:32.441Z,2.50
2018-04-01T10:02:00.644Z,2.50
2018-04-01T10:04:28.857Z,2.40
2018-04-01T10:06:57.117Z,2.50
2018-04-01T10:09:25.374Z,2.40
2018-04-01T10:11:53.589Z,2.50
2018-04-01T10:14:21.846Z,2.50
2018-04-01T10:16:50.062Z,2.50
2018-04-01T10:19:18.281Z,2.50
2018-04-01T10:21:46.538Z,2.40
2018-04-01T10:24:14.752Z,2.40
2018-04-01T10:26:42.965Z,2.50
2018-04-01T10:29:11.237Z,2.50
2018-04-01T10:31:39.454Z,2.50
2018-04-01T10:37:06.750Z,2.50
2018-04-01T10:40:55.232Z,2.50
2018-04-01T10:43:23.522Z,2.60
2018-04-01T10:45:51.742Z,2.50
2018-04-01T10:48:29.702Z,2.60
2018-04-01T10:50:58.691Z,2.60
2018-04-01T10:53:27.688Z,2.70
2018-04-01T10:55:55.967Z,2.80
2018-04-01T10:58:24.219Z,2.70
2018-04-01T11:00:51.694Z,2.60
2018-04-01T11:03:19.975Z,2.80
2018-04-01T11:05:48.274Z,2.80
2018-04-01T11:08:16.500Z,2.80
2018-04-01T11:10:44.004Z,2.80
2018-04-01T11:13:11.463Z,2.80
2018-04-01T11:15:38.947Z,2.70
2018-04-01T11:18:06.466Z,2.70
2018-04-01T11:20:34.708Z,2.70
2018-04-01T11:23:02.186Z,2.80
2018-04-01T11:25:30.464Z,2.80
2018-04-01T11:30:59.310Z,2.80
2018-04-01T11:33:26.786Z,2.90
2018-04-01T11:35:54.276Z,3.10
2018-04-01T11:41:23.001Z,2.90
2018-04-01T11:43:50.477Z,3.20
2018-04-01T11:46:18.068Z,3.10
2018-04-01T11:48:45.587Z,3.00
2018-04-01T11:51:13.065Z,2.90
2018-04-01T11:53:40.554Z,3.00
2018-04-01T11:56:08.061Z,3.10
2018-04-01T11:58:37.301Z,3.00
2018-04-01T12:01:04.778Z,3.10
2018-04-01T12:03:32.290Z,3.10
2018-04-01T12:05:59.771Z,3.00
2018-04-01T12:08:30.383Z,3.10
2018-04-01T12:13:57.953Z,3.00
2018-04-01T12:16:25.440Z,3.00
2018-04-01T12:18:53.722Z,3.10
2018-04-01T12:24:22.852Z,3.20
2018-04-01T12:29:50.673Z,3.10
2018-04-01T12:32:18.163Z,3.10
2018-04-01T12:34:45.634Z,3.10
2018-04-01T12:37:13.160Z,3.10
2018-04-01T12:42:40.812Z,3.30
2018-04-01T12:45:08.287Z,3.10
2018-04-01T12:47:36.391Z,3.20
2018-04-01T12:50:03.309Z,3.20
2018-04-01T12:52:30.784Z,3.30
2018-04-01T12:54:58.263Z,3.20
2018-04-01T12:57:25.778Z,3.20
2018-04-01T12:59:53.247Z,3.10
2018-04-01T13:02:20.709Z,3.20
2018-04-01T13:10:49.648Z,3.20
2018-04-01T13:13:17.145Z,3.30
2018-04-01T13:15:44.629Z,3.30
2018-04-01T13:18:12.165Z,3.30
2018-04-01T13:20:40.405Z,3.30
2018-04-01T13:23:07.871Z,3.30
2018-04-01T13:25:35.576Z,3.30
2018-04-01T13:28:03.049Z,3.40
2018-04-01T13:30:30.521Z,3.30
2018-04-01T13:32:58.046Z,3.30
2018-04-01T13:35:25.516Z,3.30
2018-04-01T13:37:52.999Z,3.30
2018-04-01T13:40:20.535Z,3.30
2018-04-01T13:42:48.125Z,3.40
2018-04-01T13:45:15.584Z,3.50
2018-04-01T13:50:58.161Z,3.40
2018-04-01T13:53:25.673Z,3.40
2018-04-01T13:55:53.141Z,3.40
2018-04-01T13:58:20.621Z,3.30
2018-04-01T14:00:48.892Z,3.40
2018-04-01T14:06:17.622Z,3.50
2018-04-01T14:08:45.106Z,3.50
2018-04-01T14:11:12.582Z,3.40
2018-04-01T14:13:40.085Z,3.50
2018-04-01T14:16:07.554Z,3.40
2018-04-01T14:21:35.033Z,3.70
2018-04-01T14:24:02.530Z,3.60
2018-04-01T14:26:30.051Z,3.50
2018-04-01T14:28:57.571Z,3.50
2018-04-01T14:31:25.825Z,3.60
2018-04-01T14:33:54.792Z,3.70
2018-04-01T14:36:22.289Z,3.70
2018-04-01T14:38:50.524Z,3.60
2018-04-01T14:41:17.993Z,3.60
2018-04-01T14:43:45.577Z,3.60
2018-04-01T14:46:30.553Z,3.60
2018-04-01T14:48:58.949Z,3.60
2018-04-01T14:51:26.424Z,3.60
2018-04-01T14:53:54.636Z,3.70
2018-04-01T14:56:22.136Z,3.60
2018-04-01T14:58:49.609Z,3.70
2018-04-01T15:04:17.706Z,3.70
2018-04-01T15:06:45.171Z,3.70
2018-04-01T15:09:12.677Z,3.70
2018-04-01T15:11:40.975Z,3.70
2018-04-01T15:14:29.803Z,3.70
2018-04-01T15:16:57.340Z,3.80
2018-04-01T15:19:24.810Z,3.80
2018-04-01T15:21:52.278Z,3.70
2018-04-01T15:24:19.790Z,3.80
2018-04-01T15:26:47.254Z,3.80
2018-04-01T15:29:14.737Z,3.80
2018-04-01T15:31:42.295Z,3.80
2018-04-01T15:34:09.778Z,3.70
2018-04-01T15:36:38.022Z,3.70
2018-04-01T15:39:05.545Z,3.70
2018-04-01T15:41:33.038Z,3.70
2018-04-01T15:44:00.697Z,3.80
2018-04-01T15:46:28.233Z,3.60
2018-04-01T15:48:55.693Z,3.70
2018-04-01T15:51:24.108Z,3.70
2018-04-01T15:53:52.389Z,3.70
2018-04-01T15:59:31.261Z,3.70
2018-04-01T16:01:59.171Z,3.70
2018-04-01T16:04:26.647Z,3.60
2018-04-01T16:06:54.167Z,3.60
2018-04-01T16:09:22.246Z,3.70
2018-04-01T16:14:51.409Z,3.60
2018-04-01T16:17:31.960Z,3.60
2018-04-01T16:20:00.253Z,3.60
2018-04-01T16:22:28.504Z,3.50
2018-04-01T16:24:55.985Z,3.50
2018-04-01T16:27:24.273Z,3.50
2018-04-01T16:29:51.743Z,3.50
2018-04-01T16:32:19.218Z,3.50
2018-04-01T16:34:46.733Z,3.50
2018-04-01T16:37:14.211Z,3.50
2018-04-01T16:39:41.730Z,3.50
2018-04-01T16:45:10.444Z,3.40
2018-04-01T16:47:38.694Z,3.50
2018-04-01T16:50:06.162Z,3.50
2018-04-01T16:52:33.671Z,3.40
2018-04-01T16:55:01.177Z,3.40
2018-04-01T16:57:29.660Z,3.40
2018-04-01T16:59:57.148Z,3.40
2018-04-01T17:02:24.632Z,3.30
2018-04-01T17:04:52.099Z,3.40
2018-04-01T17:07:19.612Z,3.40
2018-04-01T17:09:47.865Z,3.50
2018-04-01T17:12:16.101Z,3.40
2018-04-01T17:14:43.604Z,3.40
2018-04-01T17:17:12.450Z,3.30
2018-04-01T17:22:40.777Z,3.40
2018-04-01T17:25:08.261Z,3.40
2018-04-01T17:27:35.725Z,3.30
2018-04-01T17:30:03.282Z,3.40
2018-04-01T17:32:30.766Z,3.40
2018-04-01T17:37:58.225Z,3.40
2018-04-01T17:40:31.643Z,3.40
2018-04-01T17:42:59.151Z,3.40
2018-04-01T17:45:27.812Z,3.40
2018-04-01T17:47:55.288Z,3.40
2018-04-01T17:50:23.621Z,3.40
2018-04-01T17:52:51.085Z,3.40
2018-04-01T17:55:32.195Z,3.40
2018-04-01T17:57:59.671Z,3.40
2018-04-01T18:00:27.915Z,3.30
2018-04-01T18:02:55.409Z,3.30
2018-04-01T18:05:22.900Z,3.40
2018-04-01T18:07:51.419Z,3.40
2018-04-01T18:10:18.946Z,3.30
2018-04-01T18:12:46.463Z,3.40
2018-04-01T18:15:13.929Z,3.40
2018-04-01T18:17:41.483Z,3.40
2018-04-01T18:20:09.928Z,3.30
2018-04-01T18:22:37.473Z,3.30
2018-04-01T18:25:04.937Z,3.30
2018-04-01T18:27:32.401Z,3.40
2018-04-01T18:32:42.953Z,3.40
2018-04-01T18:35:10.459Z,3.30
2018-04-01T18:37:39.714Z,3.40
2018-04-01T18:40:07.244Z,3.30
2018-04-01T18:42:34.714Z,3.40
2018-04-01T18:48:03.669Z,3.30
2018-04-01T18:50:31.906Z,3.30
2018-04-01T18:52:59.406Z,3.30
2018-04-01T18:55:27.657Z,3.30
2018-04-01T18:57:55.223Z,3.30
2018-04-01T19:00:22.699Z,3.30
2018-04-01T19:02:50.924Z,3.20
2018-04-01T19:05:18.415Z,3.20
2018-04-01T19:07:45.913Z,3.30
2018-04-01T19:10:13.401Z,3.30
2018-04-01T19:12:40.872Z,3.20
2018-04-01T19:15:08.399Z,3.20
2018-04-01T19:17:36.623Z,3.20
2018-04-01T19:20:05.614Z,3.20
2018-04-01T19:22:33.890Z,3.20
2018-04-01T19:25:02.860Z,3.20
2018-04-01T19:27:31.057Z,3.20
2018-04-01T19:30:00.082Z,3.20
2018-04-01T19:32:28.294Z,3.20
2018-04-01T19:34:56.549Z,3.20
2018-04-01T19:37:25.382Z,3.20
2018-04-01T19:39:53.825Z,3.10
2018-04-01T19:42:22.132Z,3.10
2018-04-01T19:44:50.379Z,3.10
2018-04-01T19:47:18.660Z,3.10
2018-04-01T19:49:46.942Z,3.10
2018-04-01T19:52:15.185Z,3.10
2018-04-01T19:54:43.410Z,3.20
2018-04-01T19:57:31.661Z,3.10
2018-04-01T19:59:59.973Z,3.10
2018-04-01T20:02:28.177Z,3.10
2018-04-01T20:04:56.395Z,3.10
2018-04-01T20:07:25.411Z,3.10
2018-04-01T20:12:54.417Z,2.80
2018-04-01T20:15:22.626Z,2.70
2018-04-01T20:17:50.837Z,2.70
2018-04-01T20:20:19.875Z,2.40
2018-04-01T20:22:48.098Z,2.40
2018-04-01T20:25:16.305Z,2.40
2018-04-01T20:27:46.317Z,2.40
2018-04-01T20:30:15.289Z,2.30
2018-04-01T20:32:43.567Z,2.30
2018-04-01T20:35:11.795Z,2.30
2018-04-01T20:37:40.031Z,2.30
2018-04-01T20:40:09.033Z,2.30
2018-04-01T20:42:37.318Z,2.30
2018-04-01T20:45:05.537Z,2.40
2018-04-01T20:47:33.740Z,2.40
2018-04-01T20:50:02.804Z,2.30
2018-04-01T20:52:31.008Z,2.30
2018-04-01T20:55:00.010Z,2.20
2018-04-01T20:57:29.027Z,2.10
2018-04-01T20:59:57.292Z,2.10
2018-04-01T21:02:25.501Z,2.10
2018-04-01T21:04:53.708Z,2.00
2018-04-01T21:07:21.972Z,2.00
2018-04-01T21:09:50.173Z,1.90
2018-04-01T21:12:19.149Z,1.80
2018-04-01T21:14:47.398Z,1.80
2018-04-01T21:17:15.620Z,1.70
2018-04-01T21:19:44.605Z,1.70
2018-04-01T21:22:13.582Z,1.60
2018-04-01T21:24:41.900Z,1.60
2018-04-01T21:27:10.137Z,1.60
2018-04-01T21:29:39.121Z,1.40
2018-04-01T21:32:07.385Z,1.40
2018-04-01T21:34:35.589Z,1.50
2018-04-01T21:37:04.561Z,1.40
2018-04-01T21:39:32.824Z,1.40
2018-04-01T21:42:01.029Z,1.40
2018-04-01T21:44:30.001Z,1.40
2018-04-01T21:49:58.574Z,1.40
2018-04-01T21:52:26.803Z,1.40
2018-04-01T21:54:55.085Z,1.40
2018-04-01T21:57:23.318Z,1.30
2018-04-01T21:59:51.533Z,1.50
2018-04-01T22:02:30.914Z,1.40
2018-04-01T22:04:59.134Z,1.40
2018-04-01T22:07:28.104Z,1.40
2018-04-01T22:09:56.350Z,1.40
2018-04-01T22:12:24.589Z,1.30
2018-04-01T22:17:54.105Z,1.40
2018-04-01T22:20:22.338Z,1.40
2018-04-01T22:23:08.631Z,1.40
2018-04-01T22:25:36.898Z,1.40
2018-04-01T22:28:05.134Z,1.30
2018-04-01T22:30:34.124Z,1.30
2018-04-01T22:33:02.379Z,1.40
2018-04-01T22:35:31.348Z,1.40
2018-04-01T22:37:59.589Z,1.40
2018-04-01T22:40:27.797Z,1.30
2018-04-01T22:42:56.763Z,1.30
2018-04-01T22:45:24.980Z,1.30
2018-04-01T22:47:53.227Z,1.30
2018-04-01T22:50:21.442Z,1.20
2018-04-01T22:52:50.448Z,1.30
2018-04-01T22:55:18.667Z,1.40
2018-04-01T23:00:47.344Z,1.30
2018-04-01T23:03:15.601Z,1.20
2018-04-01T23:05:43.845Z,1.20
2018-04-01T23:08:12.079Z,1.20
2018-04-01T23:10:40.294Z,1.20
2018-04-01T23:16:08.884Z,1.20
2018-04-01T23:18:37.089Z,1.20
2018-04-01T23:21:06.078Z,1.20
2018-04-01T23:23:35.221Z,1.30
2018-04-01T23:29:03.928Z,1.20
2018-04-01T23:31:32.174Z,1.30
2018-04-01T23:34:00.386Z,1.30
2018-04-01T23:36:28.673Z,1.30
2018-04-01T23:38:56.884Z,1.30
2018-04-01T23:41:25.858Z,1.40
2018-04-01T23:43:54.877Z,1.50
2018-04-01T23:46:23.107Z,1.50
2018-04-01T23:48:51.370Z,1.50
2018-04-01T23:51:19.582Z,1.40
2018-04-01T23:53:48.604Z,1.50
2018-04-01T23:56:16.842Z,1.50
2018-04-01T23:58:45.049Z,1.60
